Nearby METAR Reports

 

RPLL - Ninoy Aquino Int, Philippines
Distance from station: S 15km
Updated: 03/01/2021 9:00pm
Few Clouds
Few Clouds
 Wind from SE
Wind: SE 7 km/h
Temperature: 28°C
Heat Index: 31°C
Dew Point: 23°C
Humidity: 74%
Barometer: 1014 hPa
Clouds: Few Clouds
Visibility: 10 km
Cloud details: Few Clouds 762 m
2021/03/01 13:00 RPLL 011300Z 13004KT 070V220 9999 FEW025 28/23 Q1014 NOSIG RMK A2994
RPLC - Angeles/Pampanga, Philippines
Distance from station: NW 71km
Updated: 03/01/2021 9:00pm
Mostly cloudy
Mostly cloudy
 Wind from NNW
Wind: NNW 4 km/h
Temperature: 27°C
Heat Index: 30°C
Dew Point: 23°C
Humidity: 79%
Barometer: 1015 hPa
Clouds: Mostly cloudy
Visibility: 10 km
Cloud details: Few Clouds 610 m
Mostly cloudy 9144 m
2021/03/01 13:00 RPLC 011300Z 34002KT 9999 FEW020 BKN300 27/23 Q1015 NOSIG RMK A2997
 
RPLB - Olongapo/Subic, Philippines
Distance from station: WNW 78km
Updated: 03/01/2021 9:00pm
Partly cloudy
Partly cloudy
 Wind from varies
Wind: varies 9 km/h
Temperature: 27°C
Heat Index: 30°C
Dew Point: 23°C
Humidity: 79%
Barometer: 1014 hPa
Clouds: Partly cloudy
Visibility: 10 km
Cloud details: Few Clouds 610 m
Partly cloudy 9144 m
2021/03/01 13:00 RPLB 011300Z VRB05KT 9999 FEW020 SCT300 27/23 Q1014 NOSIG RMK A2994
RPMR - Romblon/Tablas I, Philippines
Distance from station: SSE 270km
Updated: 03/01/2021 5:00pm
NOT Current
Mostly cloudy
Mostly cloudy
 Wind from SE
Wind: SE 19 km/h
Temperature: 29°C
Heat Index: 33°C
Dew Point: 24°C
Humidity: 74%
Barometer: 1010 hPa
Clouds: Mostly cloudy
Visibility: 10 km
Cloud details: Few Clouds 549 m
Mostly cloudy 2438 m
2021/03/01 09:00 RPMR 010900Z 14010KT 9999 FEW018 BKN080 29/24 Q1010 RMK A2983
 
RPLI - Laoag Intl(Ph-Ar, Philippines
Distance from station: N 394km
Updated: 03/01/2021 8:00pm
Thunderstorm, Few clouds
Thunderstorm, Few clouds
 Wind from varies
Wind: varies 2 km/h
Temperature: 27°C
Heat Index: 31°C
Dew Point: 25°C
Humidity: 89%
Barometer: 1014 hPa
Summary: Thunderstorm
Clouds: Few Clouds
Visibility: 10 km
Cloud details: Few Clouds 518 m
Few Clouds 549 m
2021/03/01 12:00 RPLI 011200Z VRB01KT 9999 TS FEW017CB FEW018 27/25 Q1014 NOSIG RMK A2994 CB E
RPVM - Mactan-Cebu, Philippines
Distance from station: SE 582km
Updated: 03/01/2021 9:00pm
Mostly cloudy
Mostly cloudy
 Wind from NNE
Wind: NNE 15 km/h
Temperature: 27°C
Heat Index: 31°C
Dew Point: 24°C
Humidity: 84%
Barometer: 1013 hPa
Clouds: Mostly cloudy
Visibility: 10 km
Cloud details: Few Clouds 610 m
Mostly cloudy 9144 m
2021/03/01 13:00 RPVM 011300Z 02008KT 9999 FEW020 BKN300 27/24 Q1013 RMK A2991
 
RPVP - Puerto Princesa, Philippines
Distance from station: SSW 598km
Updated: 03/01/2021 8:00pm
Few Clouds
Few Clouds
 Wind from WSW
Wind: WSW 7 km/h
Temperature: 24°C
Dew Point: 23°C
Humidity: 94%
Barometer: 1013 hPa
Clouds: Few Clouds
Visibility: 10 km
Cloud details: Few Clouds 579 m
2021/03/01 12:00 RPVP 011200Z 25004KT 9999 FEW019 24/23 Q1013 RMK A2991
RPVD - Dumaguete/Negros, Philippines
Distance from station: SSE 643km
Updated: 03/01/2021 8:00pm
Few Clouds
Few Clouds
 Wind from NW
Wind: NW 7 km/h
Temperature: 28°C
Heat Index: 32°C
Dew Point: 24°C
Humidity: 79%
Barometer: 1012 hPa
Clouds: Few Clouds
Visibility: 10 km
Cloud details: Few Clouds 457 m
2021/03/01 12:00 RPVD 011200Z 32004KT 9999 FEW015 28/24 Q1012 RMK A2988
 
RPMZ - Zamboanga (civ/A, Philippines
Distance from station: S 868km
Updated: 03/01/2021 8:00pm
Partly cloudy
Partly cloudy
 Wind from varies
Wind: varies 4 km/h
Temperature: 26°C
Dew Point: 25°C
Humidity: 94%
Barometer: 1012 hPa
Clouds: Partly cloudy
Visibility: 10 km
Cloud details: Few Clouds 518 m
Partly cloudy 2743 m
2021/03/01 12:00 RPMZ 011200Z VRB02KT 9999 FEW017 SCT090 26/25 Q1012 RMK A2988
RPMD - Davao/Francisco, Philippines
Distance from station: SSE 980km
Updated: 03/01/2021 9:00pm
Partly cloudy
Partly cloudy
 Wind from NNW
Wind: NNW 4 km/h
Temperature: 28°C
Heat Index: 31°C
Dew Point: 23°C
Humidity: 74%
Barometer: 1012 hPa
Clouds: Partly cloudy
Visibility: 10 km
Cloud details: Few Clouds 488 m
Partly cloudy 2743 m
2021/03/01 13:00 RPMD 011300Z 34002KT 9999 FEW016 SCT090 28/23 Q1012 RMK A2988